默认 日期 大小 文件数 浏览量 最新下载 xml
games磁力链接相关资源由用户搜索指令自动获取,结果来源于网络,本站不存储任何资料,亦不承担任何责任,请于24小时内删除,搜索到55764个磁力,显示前4000条数据,用时7ms。
    {"Setup.exe": 31939113, "Disk_1.gra": 2619060443, "Disk_2.gra": 886312559, "ReadMe.pdf": 196361, "autorun.inf": 85, "Disk_1_1.gra": 1519676457, "Disk_2_1.gra": 18104795, "Disk_2_2.gra": 200759186, "autorun DVD 2": {"Autorun.inf": 38}, "GRID Autosport.ico": ...
创建时间: 2018-12-02 22:33:12 大小:4.91 GB 文件数量:10 热度:8 最近下载:2024-12-29 03:25:03
    {"The Game of Life 2012 - FULL Cracked - Foxy Games.exe": 149838526}
创建时间: 2018-12-02 22:33:48 大小:142.9 MB 文件数量:1 热度:9 最近下载:2025-01-08 12:35:05
    {"setup_minecraft_story_mode_2.5.0.6.exe": 30441632, "setup_minecraft_story_mode_2.5.0.6-1.bin": 3860443030, "setup_minecraft_story_mode_adventure_pass_2.7.0.7.exe": 2107468360}
创建时间: 2018-12-02 22:33:58 大小:5.59 GB 文件数量:3 热度:15 最近下载:2025-02-28 19:30:03
    {"More Free Foxy Games.PNG": 48828, "Torrent downloaded from AhaShare.com.txt": 58, "Botanica 2- Earthbound CE [FINAL] 2013 (HOG) Foxy Games.exe": 657582680}
创建时间: 2018-12-02 22:39:31 大小:627.17 MB 文件数量:3 热度:9 最近下载:2024-12-28 20:58:02
    {"game": {"DVD.txt": 159, "disk1.bin": 3721196040, "disk2.bin": 4686186789, "disk4.bin": 4653531228, "autorun.inf": 68, "disk3_1.bin": 1630451872, "disk3_2.bin": 721207730, "disk3_3.bin": 2117576780, "disk3_4.bin": 25370782, "disk3_5.bin": 1445, "Setup_MP3 ...
创建时间: 2018-12-02 22:40:39 大小:16.36 GB 文件数量:27 热度:10 最近下载:2025-02-05 04:31:02
    {"skidrow.nfo": 12224, "sr-worldwar1centennialedition.iso": 1569769472}
创建时间: 2018-12-02 22:48:49 大小:1.46 GB 文件数量:2 热度:11 最近下载:2025-03-06 20:02:02
    {"05_Short Track Speed Skating_Men 500 Final.mkv": 263579489, "03_Short Track Speed Skating_Men 500 Semifinal.mkv": 212800730, "06_Short Track Speed Skating_Ladies 1000 Final.mkv": 187278835, "01_Short Track Speed Skating_Men 500 Quarterfinal.mkv": ...
创建时间: 2018-12-02 22:58:04 大小:2 GB 文件数量:7 热度:13 最近下载:2024-12-29 03:51:02
    {"Setup.exe": 19877664, "ReadMe.pdf": 256749, "disk_1.fc4": 4671810491, "disk_2.fc4": 1740452050, "disk_3.fc4": 4650597576, "disk_4.fc4": 4591308740, "disk_5.fc4": 825755859, "autorun.inf": 77, "disk_2_1.fc4": 2932120993, "disk_5_1.fc4": 1002623623, " ...
创建时间: 2018-12-02 23:04:13 大小:20.14 GB 文件数量:14 热度:9 最近下载:2025-10-14 22:51:02
    {"Серии": {"1. Iron From Ice.mp4": 4519910053, "2. The Lost Lords.mp4": 4858426939, "4. Sons of Winter.mp4": 4861873612, "6. The Ice Dragon.mp4": 5119553608, "5. A Nest of Vipers.mp4": 3960146981, "3. The Sword in the Darkness.mp4": 5036438935}, "Обложки": ...
创建时间: 2018-12-02 23:04:37 大小:26.43 GB 文件数量:13 热度:10 最近下载:2025-01-25 19:43:01
    {"Wa2tchDo2gs2Delu2xeE-1.17-elamigos.part01.rar": 1072693248, "Wa2tchDo2gs2Delu2xeE-1.17-elamigos.part02.rar": 1072693248, "Wa2tchDo2gs2Delu2xeE-1.17-elamigos.part03.rar": 1072693248, "Wa2tchDo2gs2Delu2xeE-1.17-elamigos.part04.rar": 1072693248, " ...
创建时间: 2018-12-02 23:10:58 大小:33.71 GB 文件数量:34 热度:11 最近下载:2025-01-28 07:51:02
    {"Torrent Downloaded From ExtraTorrent.cc.txt": 352, "The Hunger Games Mocking Jay Part 1 ENG CAM (2014) - Jacks66.avi": 537234060}
创建时间: 2018-12-02 23:21:22 大小:512.35 MB 文件数量:2 热度:11 最近下载:2025-01-16 11:23:02
    {"Crack": {"Config.exe": 3227648, "Launch.exe": 10416128, "3DMGAME.ini": 1931, "steam_api.dll": 246784}, "说明.txt": 1504}
创建时间: 2018-12-02 23:30:10 大小:13.25 MB 文件数量:5 热度:9 最近下载:2025-01-01 12:40:02
    {"Solitaire Twist Collection - Full PreCracked - Foxy Games.exe": 61847871}
创建时间: 2018-12-02 23:34:09 大小:58.98 MB 文件数量:1 热度:10 最近下载:2025-07-20 17:42:02
    ... , "steam_ceg.dll": 59392}, "Steam": {"steam": {"games": {"162edecb014f8a75e64cacd99a84ed45b6fc348f.ico": 149838}}, "steamapps": {"appmanifest_224060 ...
创建时间: 2018-12-02 23:34:41 大小:6.37 GB 文件数量:19 热度:10 最近下载:2025-03-07 17:40:02
    {"Torrent downloaded from Demonoid.me.txt": 46, "Cake Mania - To the Max - Full PreCracked - Foxy Games.exe": 85029753}
创建时间: 2018-12-02 23:48:12 大小:81.09 MB 文件数量:2 热度:9 最近下载:2024-12-29 11:38:01
    {"Sample": {"the.hunger.games.catching.fire.mtv.movie.special. ... Guide.txt": 575, "the.hunger.games.catching.fire.mtv.movie.special ... -c4tv.mkv": 558411298, "the.hunger.games.catching.fire.mtv.movie.special ...
创建时间: 2018-12-02 23:50:01 大小:555.58 MB 文件数量:5 热度:6 最近下载:2024-12-29 04:25:01
    {"WC.2012.05.05.LAT.vs.RUS.720p.50fps.mkv": 3559203920, "WC.2012.05.06.RUS.vs.NOR.720p.50fps.mkv": 3429374041, "WC.2012.05.08.RUS.vs.GER.720p.50fps.mkv": 3255495004, "WC.2012.05.10.DEN.vs.RUS.720p.50fps.mkv": 3330068421, "WC.2012.05.11.RUS.vs.SWE.720p. ...
创建时间: 2018-12-02 23:51:06 大小:29.29 GB 文件数量:9 热度:24 最近下载:2025-08-06 17:55:03
    {"RARBG.txt": 30, "Impractical.Jokers.S07E00.The.Joker.Games.720p.iT.WEB-DL.AAC2.0.H264-ViSUM.mkv": 760734494, "Impractical.Jokers.S07E00.The.Joker.Games.720p.iT.WEB-DL.AAC2.0.H264-ViSUM.srt": 50402}
创建时间: 2018-12-02 23:51:18 大小:725.54 MB 文件数量:3 热度:9 最近下载:2025-09-17 21:47:08
    {"pdalife.ru.url": 107, "25048-Cover-Fire-shooting-games-v1-8-6-cache.zip": 401966202}
创建时间: 2018-12-02 23:54:17 大小:383.34 MB 文件数量:2 热度:10 最近下载:2025-01-04 10:57:06
    {"More Free Foxy Games.PNG": 48828, "Torrent downloaded from demonoid.ph.txt": 46, "Torrent downloaded from AhaShare.com.txt": 59, "Grim Facade 5 - The Artist and The Pretender [FINAL] 2014 (HOG) Foxy Games.exe": 824844191}
创建时间: 2018-12-03 00:02:41 大小:786.68 MB 文件数量:4 热度:7 最近下载:2024-12-29 10:32:02